Time;durP1;ratioP1;P1;durP2;ratioP2;P2;SDS_P1;SDS_P2;PMS_P1;PMS_P2;Temp;Humidity;BMP_temperature;BMP_pressure;BME280_temperature;BME280_humidity;BME280_pressure;Samples;Min_cycle;Max_cycle;Signal;HPM_P1;HPM_P2
2023/07/18 00:01:58;;;;;;;0.80;0.80;;;;;;;27.47;55.30;99511.34;5058985;27;20193;-64
2023/07/18 00:04:27;;;;;;;0.70;0.70;;;;;;;27.51;54.55;99514.53;5086717;27;20197;-64
2023/07/18 00:06:54;;;;;;;9.70;0.87;;;;;;;27.51;54.50;99518.00;5047782;27;20724;-64
2023/07/18 00:09:21;;;;;;;0.80;0.53;;;;;;;27.55;55.00;99518.50;5094948;27;20208;-64
2023/07/18 00:11:49;;;;;;;0.70;0.70;;;;;;;27.52;54.53;99524.91;5083422;27;20196;-63
2023/07/18 00:14:16;;;;;;;0.40;0.40;;;;;;;27.44;53.76;99516.09;5053509;27;20217;-64
2023/07/18 00:16:44;;;;;;;0.73;0.73;;;;;;;27.41;53.94;99521.63;5047401;27;20696;-64
2023/07/18 00:19:12;;;;;;;0.70;0.70;;;;;;;27.40;54.45;99520.00;5082097;27;20193;-64
2023/07/18 00:21:39;;;;;;;11.23;0.73;;;;;;;27.33;54.19;99517.13;5046443;27;20197;-65
2023/07/18 00:24:06;;;;;;;0.53;0.50;;;;;;;27.27;54.16;99512.44;5057087;27;20673;-65
2023/07/18 00:26:33;;;;;;;1.37;0.80;;;;;;;27.24;54.65;99519.84;5065937;27;20200;-65
2023/07/18 00:29:01;;;;;;;0.40;0.40;;;;;;;27.20;54.31;99529.00;5064799;27;20200;-64
2023/07/18 00:31:28;;;;;;;0.50;0.50;;;;;;;27.14;54.36;99525.97;5052417;27;20693;-64
2023/07/18 00:33:55;;;;;;;1.43;1.33;;;;;;;27.09;54.72;99528.22;5071835;27;20224;-64
2023/07/18 00:36:21;;;;;;;0.70;0.70;;;;;;;27.07;54.89;99519.66;5046687;27;20205;-64
2023/07/18 00:38:48;;;;;;;0.70;0.70;;;;;;;26.96;55.35;99519.84;5084841;27;20204;-64
2023/07/18 00:41:15;;;;;;;0.90;0.90;;;;;;;26.83;55.85;99514.09;5100590;27;20212;-65
2023/07/18 00:43:42;;;;;;;0.60;0.60;;;;;;;26.73;56.62;99515.09;5067477;27;20197;-65
2023/07/18 00:46:10;;;;;;;0.50;0.50;;;;;;;26.68;56.90;99514.72;5097367;27;20273;-64
2023/07/18 00:48:38;;;;;;;0.60;0.60;;;;;;;26.56;56.80;99508.78;5084107;27;20235;-65
2023/07/18 00:51:07;;;;;;;0.67;0.67;;;;;;;26.54;56.99;99516.00;5057895;27;20201;-64
2023/07/18 00:53:34;;;;;;;0.60;0.60;;;;;;;26.54;57.17;99508.97;5089715;27;20216;-64
2023/07/18 00:56:02;;;;;;;0.77;0.77;;;;;;;26.50;57.59;99509.38;5086255;27;20197;-64
2023/07/18 00:58:30;;;;;;;0.70;0.70;;;;;;;26.40;57.67;99496.28;5072844;27;20229;-64
2023/07/18 01:00:57;;;;;;;0.77;0.77;;;;;;;26.44;57.98;99494.19;5064805;27;20212;-64
2023/07/18 01:03:25;;;;;;;0.83;0.60;;;;;;;26.47;57.93;99512.28;5101651;27;20633;-64
2023/07/18 01:05:52;;;;;;;1.63;0.80;;;;;;;26.45;57.74;99498.47;5057005;27;20212;-64
2023/07/18 01:08:19;;;;;;;0.53;0.53;;;;;;;26.43;57.83;99509.13;5046395;27;20668;-64
2023/07/18 01:10:46;;;;;;;0.60;0.60;;;;;;;26.41;57.84;99505.81;5073423;27;20231;-64
2023/07/18 01:13:13;;;;;;;0.43;0.43;;;;;;;26.38;57.87;99497.38;5046647;27;20636;-65
2023/07/18 01:15:39;;;;;;;0.53;0.53;;;;;;;26.34;58.21;99493.38;5080609;27;20213;-64
2023/07/18 01:18:08;;;;;;;0.57;0.57;;;;;;;26.35;58.04;99484.53;5060107;27;20221;-64
2023/07/18 01:20:37;;;;;;;0.60;0.60;;;;;;;26.37;58.12;99467.66;5050313;27;20739;-64
2023/07/18 01:23:05;;;;;;;0.70;0.70;;;;;;;26.43;57.98;99461.00;5061771;27;20228;-64
2023/07/18 01:25:33;;;;;;;0.67;0.67;;;;;;;26.38;57.96;99460.59;5048800;27;20614;-64
2023/07/18 01:28:00;;;;;;;0.80;0.80;;;;;;;26.41;57.93;99463.75;5059616;27;20280;-64
2023/07/18 01:30:28;;;;;;;0.73;0.63;;;;;;;26.35;58.16;99455.63;5043574;27;20205;-64
2023/07/18 01:32:55;;;;;;;2.53;0.70;;;;;;;26.32;58.21;99458.53;5046440;27;21288;-64
2023/07/18 01:35:24;;;;;;;0.73;0.73;;;;;;;26.32;58.03;99458.53;5047364;27;20715;-64
2023/07/18 01:37:52;;;;;;;0.70;0.70;;;;;;;26.30;58.16;99465.75;5070163;27;20217;-64
2023/07/18 01:40:21;;;;;;;0.63;0.63;;;;;;;26.28;58.03;99459.78;5075547;27;20210;-64
2023/07/18 01:42:50;;;;;;;0.70;0.70;;;;;;;26.22;58.73;99460.38;5057947;27;20209;-65
2023/07/18 01:45:17;;;;;;;0.50;0.50;;;;;;;26.25;58.84;99453.03;5054935;27;20194;-65
2023/07/18 01:47:44;;;;;;;3.53;0.60;;;;;;;26.25;58.74;99462.72;5062712;27;20201;-64
2023/07/18 01:50:10;;;;;;;0.70;0.70;;;;;;;26.26;59.30;99459.13;5083518;27;20636;-64
2023/07/18 01:52:39;;;;;;;0.60;0.60;;;;;;;26.27;58.68;99455.53;5090191;27;20610;-64
2023/07/18 01:55:07;;;;;;;0.70;0.70;;;;;;;26.23;58.57;99460.25;5118047;27;20221;-64
2023/07/18 01:57:44;;;;;;;0.67;0.67;;;;;;;26.23;58.83;99459.41;5127617;27;20208;-64
2023/07/18 02:00:17;;;;;;;0.57;0.57;;;;;;;26.14;58.81;99445.28;5087370;27;20203;-64
2023/07/18 02:02:45;;;;;;;0.60;0.60;;;;;;;26.24;58.87;99455.78;5045544;27;20200;-64
2023/07/18 02:05:14;;;;;;;0.67;0.67;;;;;;;26.13;58.90;99437.56;5049059;27;20204;-64
2023/07/18 02:07:40;;;;;;;0.60;0.60;;;;;;;26.29;59.58;99448.31;5049648;27;20287;-64
2023/07/18 02:10:08;;;;;;;0.83;0.80;;;;;;;26.29;59.35;99456.22;5092341;27;20246;-64
2023/07/18 02:12:34;;;;;;;0.60;0.60;;;;;;;26.30;59.65;99465.75;5053822;27;20254;-64
2023/07/18 02:15:05;;;;;;;0.93;0.70;;;;;;;26.28;60.43;99458.00;5047947;27;20217;-64
2023/07/18 02:17:32;;;;;;;3.53;0.70;;;;;;;26.29;60.30;99454.41;5071278;27;20783;-64
2023/07/18 02:19:59;;;;;;;0.83;0.83;;;;;;;26.30;60.60;99457.88;5106413;27;20193;-64
2023/07/18 02:22:26;;;;;;;0.60;0.60;;;;;;;26.29;60.60;99459.66;5070284;27;20200;-64
2023/07/18 02:24:53;;;;;;;0.50;0.50;;;;;;;26.29;60.69;99453.56;5072296;27;20200;-64
2023/07/18 02:27:20;;;;;;;0.83;0.80;;;;;;;26.26;61.81;99454.69;5048214;27;20286;-65
2023/07/18 02:29:47;;;;;;;0.57;0.57;;;;;;;26.26;61.69;99464.38;5049455;27;20720;-64
2023/07/18 02:32:16;;;;;;;0.70;0.70;;;;;;;26.26;60.94;99464.38;5046945;27;20292;-64
2023/07/18 02:34:43;;;;;;;2.67;1.00;;;;;;;26.24;60.34;99461.03;5048971;27;20223;-64
2023/07/18 02:37:10;;;;;;;0.50;0.47;;;;;;;26.20;60.59;99459.69;5075313;27;20618;-65
2023/07/18 02:39:38;;;;;;;0.90;0.87;;;;;;;26.16;60.15;99463.53;5047902;27;20557;-64
2023/07/18 02:42:06;;;;;;;0.93;0.67;;;;;;;26.09;61.51;99469.38;5047854;27;20209;-65
2023/07/18 02:44:33;;;;;;;0.70;0.60;;;;;;;26.00;61.55;99472.88;5091591;27;20264;-64
2023/07/18 02:47:00;;;;;;;2.10;0.90;;;;;;;25.86;62.60;99465.41;5076534;27;20196;-64
2023/07/18 02:49:28;;;;;;;0.70;0.70;;;;;;;25.85;62.88;99471.63;5049124;27;20235;-64
2023/07/18 02:51:55;;;;;;;4.20;0.80;;;;;;;25.85;62.85;99471.63;5048708;27;20208;-64
2023/07/18 02:54:22;;;;;;;0.70;0.70;;;;;;;25.80;62.17;99468.63;5048989;27;20228;-64
2023/07/18 02:56:49;;;;;;;1.00;1.00;;;;;;;25.72;62.59;99467.66;5048626;27;20204;-64
2023/07/18 02:59:20;;;;;;;1.00;1.00;;;;;;;25.76;62.38;99476.91;5096583;27;20300;-64
2023/07/18 03:01:49;;;;;;;0.87;0.83;;;;;;;25.70;62.11;99477.47;5058416;27;20201;-64
2023/07/18 03:04:16;;;;;;;2.33;0.77;;;;;;;25.67;61.67;99472.50;5095789;27;20745;-65
2023/07/18 03:06:45;;;;;;;0.67;0.67;;;;;;;25.62;62.03;99479.97;5061325;27;20199;-64
2023/07/18 03:09:11;;;;;;;0.80;0.80;;;;;;;25.49;62.81;99480.22;5097653;27;20211;-65
2023/07/18 03:11:38;;;;;;;1.27;0.80;;;;;;;25.47;62.98;99482.16;5082943;27;20201;-64
2023/07/18 03:14:07;;;;;;;0.70;0.70;;;;;;;25.46;63.15;99493.63;5049814;27;20204;-64
2023/07/18 03:16:34;;;;;;;0.77;0.77;;;;;;;25.46;63.89;99491.81;5047062;27;20685;-64
2023/07/18 03:19:01;;;;;;;0.70;0.70;;;;;;;25.44;63.90;99487.69;5062851;27;20251;-64
2023/07/18 03:21:27;;;;;;;0.80;0.80;;;;;;;25.43;63.80;99488.63;5067958;27;20204;-64
2023/07/18 03:23:55;;;;;;;0.77;0.70;;;;;;;25.43;64.00;99496.50;5076639;27;20201;-64
2023/07/18 03:26:22;;;;;;;0.50;0.50;;;;;;;25.43;63.94;99491.25;5055485;27;20580;-64
2023/07/18 03:28:49;;;;;;;1.07;0.97;;;;;;;25.41;63.78;99501.91;5051124;27;20580;-64
2023/07/18 03:31:16;;;;;;;0.60;0.60;;;;;;;25.37;63.60;99494.44;5084314;27;20681;-64
2023/07/18 03:33:43;;;;;;;0.63;0.63;;;;;;;25.34;64.35;99492.09;5047719;27;20672;-64
2023/07/18 03:36:09;;;;;;;0.83;0.83;;;;;;;25.31;64.89;99493.19;5047724;27;20221;-64
2023/07/18 03:38:36;;;;;;;1.10;1.10;;;;;;;25.34;65.16;99492.94;5086626;27;20668;-65
2023/07/18 03:41:04;;;;;;;0.80;0.80;;;;;;;25.37;66.18;99486.56;5065453;27;20196;-65
2023/07/18 03:43:31;;;;;;;0.63;0.63;;;;;;;25.36;66.85;99488.38;5047323;27;20200;-63
2023/07/18 03:45:58;;;;;;;2.03;0.90;;;;;;;25.38;67.36;99493.47;5082853;27;20200;-64
2023/07/18 03:48:26;;;;;;;7.10;0.90;;;;;;;25.43;67.24;99493.88;5061106;27;20203;-65
2023/07/18 03:50:53;;;;;;;0.80;0.80;;;;;;;25.49;67.37;99498.59;5076823;27;20193;-64
2023/07/18 03:53:20;;;;;;;0.87;0.87;;;;;;;25.54;66.93;99496.41;5046529;27;20193;-65
2023/07/18 03:55:47;;;;;;;1.13;1.13;;;;;;;25.59;67.00;99499.44;5050636;27;20597;-64
2023/07/18 03:58:15;;;;;;;0.63;0.63;;;;;;;25.66;66.72;99500.53;5052942;27;20192;-64
2023/07/18 04:00:41;;;;;;;0.70;0.70;;;;;;;25.75;67.31;99499.72;5047257;27;20270;-64
2023/07/18 04:03:12;;;;;;;0.67;0.67;;;;;;;25.83;66.55;99494.59;5084733;27;20205;-64
2023/07/18 04:05:39;;;;;;;1.07;1.07;;;;;;;25.92;67.40;99499.00;5047972;27;20201;-63
2023/07/18 04:08:06;;;;;;;0.63;0.63;;;;;;;26.01;66.41;99492.88;5053502;27;20202;-64
2023/07/18 04:10:32;;;;;;;0.70;0.60;;;;;;;26.13;67.05;99484.84;5076526;27;20196;-64
2023/07/18 04:12:59;;;;;;;0.80;0.80;;;;;;;26.23;66.10;99486.53;5049894;27;20204;-64
2023/07/18 04:15:27;;;;;;;0.90;0.90;;;;;;;26.35;66.98;99492.44;5039713;27;20693;-65
2023/07/18 04:17:54;;;;;;;0.53;0.53;;;;;;;26.34;66.46;99461.84;5054836;27;20235;-64
2023/07/18 04:20:21;;;;;;;0.63;0.63;;;;;;;26.59;65.61;99488.28;5056181;27;20221;-64
2023/07/18 04:22:48;;;;;;;1.03;1.03;;;;;;;26.75;65.76;99492.94;5098955;27;20200;-64
2023/07/18 04:25:14;;;;;;;0.70;0.70;;;;;;;26.87;65.16;99486.53;5091207;27;20623;-65
2023/07/18 04:27:41;;;;;;;0.77;0.77;;;;;;;27.00;64.58;99480.91;5047272;27;20201;-65
2023/07/18 04:30:10;;;;;;;0.87;0.63;;;;;;;27.11;63.91;99473.63;5084200;27;20193;-64
2023/07/18 04:32:38;;;;;;;0.67;0.67;;;;;;;27.23;62.52;99481.31;5084666;27;20226;-64
2023/07/18 04:35:06;;;;;;;1.20;0.80;;;;;;;27.31;61.36;99479.59;5093170;27;20220;-64
2023/07/18 04:37:33;;;;;;;1.40;0.70;;;;;;;27.45;62.28;99475.63;5043894;27;20636;-64
2023/07/18 04:40:00;;;;;;;3.60;1.00;;;;;;;27.57;62.46;99475.25;5091517;27;20222;-65
2023/07/18 04:42:26;;;;;;;0.77;0.77;;;;;;;27.56;58.80;99462.25;5079605;27;20652;-64
2023/07/18 04:44:53;;;;;;;0.70;0.70;;;;;;;27.72;58.82;99477.34;5070278;27;20257;-65
2023/07/18 04:47:20;;;;;;;1.43;0.73;;;;;;;27.76;58.26;99476.84;5053370;27;20200;-64
2023/07/18 04:49:48;;;;;;;0.90;0.90;;;;;;;27.91;60.50;99477.97;5075009;27;20201;-65
2023/07/18 04:52:15;;;;;;;1.73;0.90;;;;;;;28.05;58.42;99476.56;5097853;27;20201;-64
2023/07/18 04:54:42;;;;;;;0.50;0.50;;;;;;;28.22;59.87;99474.88;5070369;27;20622;-64
2023/07/18 04:57:09;;;;;;;0.77;0.77;;;;;;;28.30;58.19;99477.59;5046231;27;20580;-64
2023/07/18 04:59:36;;;;;;;1.67;0.90;;;;;;;28.42;58.73;99473.69;5046273;27;20210;-64
2023/07/18 05:02:02;;;;;;;0.83;0.83;;;;;;;28.59;58.34;99472.78;5055338;27;20193;-64
2023/07/18 05:04:29;;;;;;;0.67;0.67;;;;;;;28.75;58.43;99472.88;5051650;27;20216;-64
2023/07/18 05:06:58;;;;;;;3.05;0.80;;;;;;;28.88;55.73;99478.50;5055969;27;20249;-65
2023/07/18 05:09:27;;;;;;;0.73;0.73;;;;;;;28.99;54.25;99474.72;5074424;27;20193;-66
2023/07/18 05:11:55;;;;;;;0.50;0.40;;;;;;;29.12;56.06;99470.63;5064724;27;20205;-66
2023/07/18 05:14:22;;;;;;;0.70;0.70;;;;;;;29.28;55.33;99474.31;5075308;27;20678;-65
2023/07/18 05:16:49;;;;;;;0.57;0.57;;;;;;;29.42;55.16;99476.31;5101109;27;20221;-67
2023/07/18 05:19:16;;;;;;;0.52;0.52;;;;;;;29.54;55.77;99481.09;5059891;27;20213;-65
2023/07/18 05:21:43;;;;;;;0.82;0.82;;;;;;;29.73;53.69;99479.94;5095468;27;20225;-65
2023/07/18 05:24:11;;;;;;;0.80;0.80;;;;;;;29.92;52.92;99476.97;5073337;27;20227;-66
2023/07/18 05:26:37;;;;;;;0.60;0.60;;;;;;;30.00;50.81;99486.72;5087258;27;20225;-66
2023/07/18 05:29:04;;;;;;;0.85;0.85;;;;;;;30.07;53.55;99477.97;5053081;27;20201;-65
2023/07/18 05:31:31;;;;;;;1.45;1.08;;;;;;;30.24;53.36;99480.56;5099637;27;20261;-66
2023/07/18 05:33:58;;;;;;;2.35;1.38;;;;;;;30.45;52.40;99478.19;5109591;27;20205;-66
2023/07/18 05:36:25;;;;;;;1.15;1.05;;;;;;;30.56;53.69;99472.53;5108872;27;20220;-66
2023/07/18 05:38:52;;;;;;;0.90;0.90;;;;;;;30.76;53.59;99471.09;5113218;27;20297;-65
2023/07/18 05:41:20;;;;;;;3.90;1.27;;;;;;;30.94;53.13;99476.97;5078693;27;20193;-66
2023/07/18 05:43:47;;;;;;;1.50;1.40;;;;;;;31.05;53.14;99476.59;5087168;27;20201;-63
2023/07/18 05:46:14;;;;;;;4.68;0.98;;;;;;;31.06;50.51;99467.66;5103175;27;20212;-65
2023/07/18 05:48:41;;;;;;;0.77;0.73;;;;;;;31.02;49.04;99474.31;5084721;27;20205;-64
2023/07/18 05:51:08;;;;;;;0.90;0.90;;;;;;;31.12;49.77;99453.72;5071722;27;20661;-65
2023/07/18 05:53:35;;;;;;;0.70;0.70;;;;;;;31.45;50.06;99461.41;5092355;27;20198;-64
2023/07/18 05:56:02;;;;;;;1.67;1.58;;;;;;;31.65;48.55;99459.97;5097824;27;20221;-64
2023/07/18 05:58:30;;;;;;;0.70;0.70;;;;;;;31.89;47.78;99456.28;5084405;27;20273;-65
2023/07/18 06:00:57;;;;;;;0.70;0.70;;;;;;;32.14;47.46;99461.16;5089252;27;20212;-65
2023/07/18 06:03:23;;;;;;;0.80;0.80;;;;;;;32.30;45.35;99459.31;5093097;27;20209;-65
2023/07/18 06:05:54;;;;;;;0.80;0.70;;;;;;;32.22;47.73;99453.09;5081879;27;20210;-65
2023/07/18 06:08:22;;;;;;;1.08;1.08;;;;;;;32.30;46.63;99454.03;5088497;27;20288;-65
2023/07/18 06:10:49;;;;;;;1.02;1.02;;;;;;;32.52;45.25;99451.25;5087532;27;20236;-66
2023/07/18 06:13:15;;;;;;;1.05;0.95;;;;;;;32.75;46.75;99445.84;5118226;27;20228;-66
2023/07/18 06:15:44;;;;;;;0.60;0.60;;;;;;;32.81;44.85;99441.59;5103485;27;20538;-66
2023/07/18 06:18:10;;;;;;;0.98;0.98;;;;;;;32.94;44.37;99437.28;5095046;27;20240;-66
2023/07/18 06:20:41;;;;;;;1.08;0.75;;;;;;;33.22;43.84;99434.69;5094131;27;20691;-66
2023/07/18 06:23:08;;;;;;;0.60;0.60;;;;;;;33.45;45.01;99437.16;5098420;27;20656;-65
2023/07/18 06:25:35;;;;;;;0.70;0.70;;;;;;;33.64;43.02;99442.66;5109970;27;20253;-66
2023/07/18 06:28:02;;;;;;;0.82;0.82;;;;;;;33.88;43.71;99445.91;5116472;27;20205;-65
2023/07/18 06:30:29;;;;;;;0.70;0.70;;;;;;;34.03;42.97;99442.13;5083831;27;20202;-65
2023/07/18 06:32:57;;;;;;;0.80;0.80;;;;;;;34.20;44.44;99440.81;5090398;27;20216;-65
2023/07/18 06:35:24;;;;;;;0.60;0.60;;;;;;;34.34;42.36;99440.88;5088266;27;20588;-66
2023/07/18 06:37:51;;;;;;;0.57;0.57;;;;;;;34.23;39.60;99419.13;5109021;27;20296;-66
2023/07/18 06:40:18;;;;;;;0.68;0.68;;;;;;;34.49;40.05;99433.56;5058271;27;20208;-66
2023/07/18 06:42:45;;;;;;;3.38;0.98;;;;;;;34.53;40.40;99430.34;5080999;27;20189;-66
2023/07/18 06:45:14;;;;;;;0.68;0.63;;;;;;;34.35;40.59;99442.53;5079335;27;20221;-65
2023/07/18 06:47:41;;;;;;;1.08;1.08;;;;;;;34.38;39.46;99442.16;5060176;27;20203;-69
2023/07/18 06:50:10;;;;;;;0.73;0.73;;;;;;;34.47;40.15;99430.31;5087371;27;20549;-65
2023/07/18 06:52:36;;;;;;;0.80;0.80;;;;;;;34.56;41.86;99434.44;5103473;27;20575;-65
2023/07/18 06:55:04;;;;;;;1.02;1.02;;;;;;;34.69;41.81;99434.50;5090411;27;20212;-65
2023/07/18 06:57:30;;;;;;;0.70;0.70;;;;;;;34.94;39.31;99440.09;5063145;27;20217;-65
2023/07/18 06:59:57;;;;;;;0.82;0.82;;;;;;;35.12;38.85;99427.84;5084038;27;20213;-66
2023/07/18 07:02:24;;;;;;;0.55;0.55;;;;;;;35.06;38.75;99425.97;5088253;27;20721;-66
2023/07/18 07:04:51;;;;;;;0.70;0.70;;;;;;;34.83;37.91;99420.22;5077316;27;20234;-65
2023/07/18 07:07:19;;;;;;;1.23;1.13;;;;;;;35.03;39.05;99415.72;5088983;27;20211;-65
2023/07/18 07:09:45;;;;;;;0.57;0.57;;;;;;;35.15;39.63;99413.34;5055784;27;20209;-68
2023/07/18 07:12:14;;;;;;;0.70;0.70;;;;;;;35.02;41.08;99403.44;5103897;27;20198;-64
2023/07/18 07:14:41;;;;;;;0.80;0.80;;;;;;;35.24;40.49;99396.94;5087546;27;20208;-65
2023/07/18 07:17:08;;;;;;;1.20;1.20;;;;;;;35.54;40.08;99407.19;5064637;27;20240;-65
2023/07/18 07:19:35;;;;;;;0.90;0.90;;;;;;;35.52;38.44;99409.22;5058026;27;20216;-64
2023/07/18 07:22:02;;;;;;;1.10;1.10;;;;;;;35.51;38.09;99418.25;5075887;27;20201;-65
2023/07/18 07:24:31;;;;;;;1.52;1.42;;;;;;;35.70;39.40;99406.78;5088928;27;20208;-65
2023/07/18 07:26:59;;;;;;;1.02;1.02;;;;;;;35.97;38.46;99412.88;5092168;27;20211;-65
2023/07/18 07:29:27;;;;;;;1.45;1.30;;;;;;;35.80;39.23;99391.19;5090491;27;20272;-64
2023/07/18 07:31:54;;;;;;;0.93;0.93;;;;;;;36.05;41.36;99405.47;5068629;27;20205;-64
2023/07/18 07:34:21;;;;;;;1.23;1.23;;;;;;;35.97;39.14;99403.03;5095730;27;20193;-64
2023/07/18 07:36:53;;;;;;;1.08;1.08;;;;;;;36.11;43.42;99412.66;5095740;27;20379;-64
2023/07/18 07:39:19;;;;;;;1.55;1.45;;;;;;;36.21;39.14;99415.72;5069256;27;20676;-64
2023/07/18 07:41:48;;;;;;;6.28;1.20;;;;;;;36.35;40.42;99399.66;5072508;27;20224;-65
2023/07/18 07:44:14;;;;;;;1.48;1.00;;;;;;;36.39;40.55;99403.50;5061448;27;20707;-65
2023/07/18 07:46:41;;;;;;;0.82;0.82;;;;;;;36.44;38.87;99403.72;5087921;27;20200;-64
2023/07/18 07:49:09;;;;;;;2.22;1.30;;;;;;;36.46;39.17;99409.66;5068627;27;20652;-65
2023/07/18 07:51:36;;;;;;;2.72;1.25;;;;;;;36.52;40.06;99401.59;5081143;27;20232;-65
2023/07/18 07:54:03;;;;;;;1.27;1.17;;;;;;;36.63;37.95;99397.47;5086463;27;20600;-65
2023/07/18 07:56:30;;;;;;;1.58;1.48;;;;;;;36.78;40.53;99398.00;5073479;27;20348;-66
2023/07/18 07:58:58;;;;;;;1.20;1.10;;;;;;;36.89;37.63;99389.31;5078848;27;20205;-65
2023/07/18 08:01:25;;;;;;;1.30;1.20;;;;;;;36.92;40.04;99388.88;5077814;27;20725;-66
2023/07/18 08:03:51;;;;;;;1.23;1.20;;;;;;;37.03;39.21;99388.19;5062557;27;20656;-66
2023/07/18 08:06:18;;;;;;;1.60;1.10;;;;;;;37.03;39.32;99387.41;5061466;27;20205;-66
2023/07/18 08:08:45;;;;;;;1.52;1.52;;;;;;;37.06;37.86;99397.66;5080292;27;20265;-66
2023/07/18 08:11:12;;;;;;;1.30;1.20;;;;;;;36.91;37.85;99395.25;5041311;27;20201;-64
2023/07/18 08:13:39;;;;;;;0.95;0.95;;;;;;;37.10;38.77;99391.66;5081484;27;20200;-66
2023/07/18 08:16:07;;;;;;;1.40;1.40;;;;;;;37.14;39.32;99392.84;5082370;27;20238;-66
2023/07/18 08:18:34;;;;;;;1.42;1.33;;;;;;;37.17;39.04;99376.38;5057556;27;20231;-66
2023/07/18 08:21:02;;;;;;;2.75;1.45;;;;;;;37.39;38.62;99392.84;5050540;27;20324;-64
2023/07/18 08:23:29;;;;;;;1.83;1.73;;;;;;;37.39;38.18;99386.69;5080221;27;20660;-67
2023/07/18 08:25:55;;;;;;;1.67;1.58;;;;;;;37.27;37.82;99384.72;5097250;27;20213;-65
2023/07/18 08:28:22;;;;;;;1.40;1.30;;;;;;;37.32;36.48;99384.88;5112226;27;20204;-65
2023/07/18 08:30:49;;;;;;;1.65;1.55;;;;;;;37.42;37.85;99381.72;5068964;27;20213;-65
2023/07/18 08:33:19;;;;;;;1.73;1.63;;;;;;;37.50;41.56;99380.66;5069027;27;20218;-64
2023/07/18 08:35:46;;;;;;;1.50;1.40;;;;;;;37.62;38.32;99379.69;5102886;27;20554;-64
2023/07/18 08:38:13;;;;;;;1.73;1.27;;;;;;;37.71;41.58;99374.88;5093777;27;20263;-64
2023/07/18 08:40:43;;;;;;;1.55;1.45;;;;;;;37.91;37.44;99380.88;5073588;27;20630;-65
2023/07/18 08:43:13;;;;;;;2.75;1.40;;;;;;;38.02;36.29;99379.31;5109135;27;20630;-65
2023/07/18 08:45:41;;;;;;;1.33;1.23;;;;;;;38.19;37.17;99378.47;5073756;27;20280;-65
2023/07/18 08:48:08;;;;;;;1.65;1.55;;;;;;;38.26;38.39;99368.50;5107461;27;20612;-64
2023/07/18 08:50:36;;;;;;;1.58;1.48;;;;;;;38.14;39.82;99359.59;5111977;27;20197;-64
2023/07/18 08:53:05;;;;;;;1.50;1.40;;;;;;;38.23;39.89;99363.59;5095246;27;20204;-64
2023/07/18 08:55:32;;;;;;;1.73;1.63;;;;;;;38.28;36.53;99363.75;5095172;27;20289;-64
2023/07/18 08:58:00;;;;;;;2.50;1.70;;;;;;;38.22;36.82;99361.16;5114858;27;20217;-65
2023/07/18 09:00:27;;;;;;;5.05;1.50;;;;;;;38.24;37.89;99351.84;5083063;27;20193;-64
2023/07/18 09:02:54;;;;;;;1.20;1.20;;;;;;;38.33;36.73;99346.97;5096925;27;20204;-65
2023/07/18 09:05:32;;;;;;;2.42;2.28;;;;;;;38.63;37.42;99331.75;5133434;27;20284;-64
2023/07/18 09:08:01;;;;;;;1.77;1.67;;;;;;;38.79;37.34;99343.69;5047325;27;20197;-64
2023/07/18 09:10:28;;;;;;;2.25;2.03;;;;;;;38.65;37.14;99336.88;5062896;27;20197;-64
2023/07/18 09:12:55;;;;;;;1.75;1.65;;;;;;;38.57;38.00;99337.22;5087517;27;20201;-67
2023/07/18 09:15:22;;;;;;;1.90;1.80;;;;;;;38.83;36.88;99336.84;5108176;27;20201;-65
2023/07/18 09:17:54;;;;;;;1.45;1.38;;;;;;;38.81;37.58;99334.38;5061809;27;20239;-65
2023/07/18 09:20:21;;;;;;;1.30;1.30;;;;;;;38.76;36.97;99333.41;5099525;27;20205;-65
2023/07/18 09:22:48;;;;;;;3.75;1.75;;;;;;;38.56;39.01;99331.03;5109277;27;20287;-65
2023/07/18 09:25:17;;;;;;;1.70;1.60;;;;;;;38.82;37.88;99327.16;5048302;27;20253;-65
2023/07/18 09:27:43;;;;;;;2.75;2.03;;;;;;;38.90;37.43;99321.47;5046517;27;20204;-66
2023/07/18 09:30:11;;;;;;;3.30;1.88;;;;;;;38.95;37.21;99318.91;5063495;27;20205;-65
2023/07/18 09:32:38;;;;;;;1.40;1.40;;;;;;;38.95;36.78;99310.06;5062577;27;20300;-66
2023/07/18 09:35:05;;;;;;;1.48;1.40;;;;;;;39.23;37.13;99318.22;5059738;27;20288;-65
2023/07/18 09:37:44;;;;;;;2.22;2.13;;;;;;;39.44;36.27;99319.53;5068724;27;20228;-68
2023/07/18 09:40:13;;;;;;;2.20;2.10;;;;;;;39.56;37.55;99314.97;5063693;27;20291;-65
2023/07/18 09:42:43;;;;;;;1.90;1.80;;;;;;;39.64;34.07;99306.56;5072500;27;20201;-65
2023/07/18 09:45:11;;;;;;;1.67;1.58;;;;;;;39.83;36.51;99300.03;5049473;27;20583;-65
2023/07/18 09:47:39;;;;;;;2.08;1.92;;;;;;;39.81;34.72;99304.78;5058298;27;20208;-65
2023/07/18 09:50:06;;;;;;;1.80;1.70;;;;;;;39.88;35.21;99302.78;5047066;27;20740;-65
2023/07/18 09:52:36;;;;;;;1.85;1.75;;;;;;;40.03;33.82;99300.44;5044960;27;20209;-65
2023/07/18 09:55:07;;;;;;;2.13;2.03;;;;;;;40.06;34.34;99291.91;5055747;27;20258;-65
2023/07/18 09:57:37;;;;;;;1.73;1.58;;;;;;;39.97;35.27;99284.47;5053350;27;20645;-65
2023/07/18 10:00:10;;;;;;;1.70;1.60;;;;;;;39.99;35.69;99283.16;5060630;27;20300;-65
2023/07/18 10:02:37;;;;;;;2.08;1.98;;;;;;;40.19;35.42;99272.84;5060575;27;20518;-64
2023/07/18 10:05:04;;;;;;;1.23;1.23;;;;;;;40.22;32.37;99253.53;5075637;27;20205;-65
2023/07/18 10:07:33;;;;;;;1.73;1.63;;;;;;;40.38;36.75;99266.19;5073186;27;20246;-63
2023/07/18 10:10:01;;;;;;;5.55;1.95;;;;;;;40.24;34.74;99269.41;5081013;27;20209;-63
2023/07/18 10:12:28;;;;;;;2.03;1.50;;;;;;;40.32;33.35;99260.97;5106062;27;20204;-63
2023/07/18 10:14:57;;;;;;;1.88;1.77;;;;;;;40.33;33.64;99260.72;5111452;27;20204;-62
2023/07/18 10:17:36;;;;;;;3.42;1.70;;;;;;;40.24;34.60;99254.13;5112367;27;20224;-63
2023/07/18 10:20:10;;;;;;;1.63;1.52;;;;;;;40.16;33.64;99233.03;5080990;27;20221;-63
2023/07/18 10:22:36;;;;;;;1.63;1.52;;;;;;;40.50;33.81;99247.31;5085037;27;20201;-63
2023/07/18 10:25:07;;;;;;;3.08;1.30;;;;;;;40.65;34.94;99249.47;5124258;27;20630;-64
2023/07/18 10:27:38;;;;;;;1.63;1.52;;;;;;;40.66;31.85;99240.31;5103834;27;20270;-63
2023/07/18 10:30:07;;;;;;;2.10;1.50;;;;;;;40.79;31.87;99250.75;5087605;27;20221;-64
2023/07/18 10:32:37;;;;;;;2.78;1.17;;;;;;;40.90;31.73;99241.78;5075022;27;20227;-63
2023/07/18 10:35:09;;;;;;;1.45;1.40;;;;;;;40.83;31.52;99239.28;5077315;27;20663;-64
2023/07/18 10:37:36;;;;;;;1.80;1.70;;;;;;;40.70;31.72;99242.28;5080171;27;20216;-64
2023/07/18 10:40:05;;;;;;;1.85;1.70;;;;;;;40.85;32.86;99239.00;5078785;27;20201;-64
2023/07/18 10:42:34;;;;;;;1.77;1.67;;;;;;;41.09;31.21;99228.91;5090786;27;20296;-63
2023/07/18 10:45:04;;;;;;;4.70;1.40;;;;;;;41.16;31.44;99230.38;5106709;27;20197;-63
2023/07/18 10:47:32;;;;;;;2.05;1.95;;;;;;;41.24;32.92;99231.78;5108075;27;20696;-63
2023/07/18 10:50:01;;;;;;;1.65;1.55;;;;;;;41.29;30.24;99240.78;5074915;27;20205;-63
2023/07/18 10:52:28;;;;;;;1.92;1.83;;;;;;;41.22;30.21;99232.06;5079474;27;20549;-64
2023/07/18 10:54:56;;;;;;;2.25;2.03;;;;;;;41.20;31.87;99236.84;5078242;27;20205;-64
2023/07/18 10:57:28;;;;;;;2.03;1.92;;;;;;;41.22;30.66;99237.44;5113843;27;20566;-63
2023/07/18 10:59:55;;;;;;;1.75;1.65;;;;;;;41.14;30.34;99227.09;5090695;27;20628;-63
2023/07/18 11:02:23;;;;;;;4.03;1.60;;;;;;;41.10;30.51;99231.34;5104837;27;20200;-63
2023/07/18 11:04:51;;;;;;;1.70;1.60;;;;;;;40.61;31.29;99226.81;5101572;27;20198;-63
2023/07/18 11:07:19;;;;;;;3.30;1.77;;;;;;;40.43;31.50;99224.31;5091150;27;20197;-63
2023/07/18 11:09:46;;;;;;;1.60;1.52;;;;;;;40.59;32.13;99226.22;5129204;27;20286;-63
2023/07/18 11:12:19;;;;;;;1.40;1.30;;;;;;;40.78;31.87;99224.91;5104374;27;20261;-64
2023/07/18 11:14:47;;;;;;;1.65;1.65;;;;;;;40.77;32.36;99204.50;5093132;27;20204;-64
2023/07/18 11:17:16;;;;;;;1.40;1.40;;;;;;;40.80;31.77;99212.06;5091016;27;20694;-64
2023/07/18 11:19:44;;;;;;;1.70;1.70;;;;;;;40.86;32.22;99205.69;5093352;27;20286;-64
2023/07/18 11:22:13;;;;;;;1.40;1.38;;;;;;;40.82;32.46;99204.56;5115650;27;20208;-64
2023/07/18 11:24:41;;;;;;;1.60;1.50;;;;;;;40.73;32.16;99206.03;5085740;27;20204;-64
2023/07/18 11:27:14;;;;;;;2.97;1.13;;;;;;;40.95;32.43;99201.53;5124618;27;20231;-64
2023/07/18 11:29:41;;;;;;;1.80;1.70;;;;;;;41.14;30.57;99204.75;5084108;27;20731;-65
2023/07/18 11:32:08;;;;;;;1.48;1.25;;;;;;;41.18;30.56;99206.72;5109547;27;20622;-65
2023/07/18 11:34:35;;;;;;;0.90;0.90;;;;;;;41.01;29.05;99205.13;5056369;27;20204;-65
2023/07/18 11:37:02;;;;;;;3.42;1.40;;;;;;;40.91;28.89;99210.34;5114565;27;20212;-65